Time;durP1;ratioP1;P1;durP2;ratioP2;P2;SDS_P1;SDS_P2;PMS_P1;PMS_P2;Temp;Humidity;BMP_temperature;BMP_pressure;BME280_temperature;BME280_humidity;BME280_pressure;Samples;Min_cycle;Max_cycle;Signal;HPM_P1;HPM_P2
2023/03/20 00:00:36;;;;;;;1.80;1.20;;;14.40;39.10;;;;;;5032703;28;20558;-76
2023/03/20 00:03:02;;;;;;;1.80;1.03;;;14.40;39.50;;;;;;5032078;28;20417;-76
2023/03/20 00:05:29;;;;;;;1.80;1.10;;;14.10;39.20;;;;;;5030606;28;20436;-76
2023/03/20 00:07:56;;;;;;;1.90;1.20;;;14.10;39.10;;;;;;5031829;28;20432;-75
2023/03/20 00:10:28;;;;;;;1.80;1.20;;;14.20;39.80;;;;;;5032663;28;20420;-76
2023/03/20 00:12:56;;;;;;;1.87;1.20;;;14.50;36.90;;;;;;5032863;28;20441;-76
2023/03/20 00:15:23;;;;;;;2.00;1.23;;;14.40;37.60;;;;;;5032077;28;20892;-76
2023/03/20 00:17:49;;;;;;;1.80;1.10;;;14.30;38.10;;;;;;5030934;28;20848;-76
2023/03/20 00:20:15;;;;;;;1.80;1.10;;;14.10;37.80;;;;;;5032414;28;20483;-74
2023/03/20 00:22:41;;;;;;;1.87;1.10;;;14.20;39.00;;;;;;5024695;28;20177;-76
2023/03/20 00:25:11;;;;;;;1.83;1.13;;;14.20;37.60;;;;;;5032839;28;20446;-77
2023/03/20 00:27:37;;;;;;;1.80;1.10;;;14.20;36.80;;;;;;5030718;28;20629;-75
2023/03/20 00:30:04;;;;;;;1.80;1.10;;;14.40;37.00;;;;;;5032704;28;20447;-76
2023/03/20 00:32:30;;;;;;;1.80;1.10;;;14.10;38.30;;;;;;5032855;28;20180;-76
2023/03/20 00:34:55;;;;;;;1.80;1.10;;;14.20;38.50;;;;;;5033328;28;20885;-76
2023/03/20 00:37:21;;;;;;;2.00;1.30;;;14.00;38.90;;;;;;5030948;28;20186;-76
2023/03/20 00:39:46;;;;;;;1.80;1.10;;;14.20;38.60;;;;;;5030001;28;20270;-76
2023/03/20 00:42:21;;;;;;;1.80;1.10;;;14.30;37.00;;;;;;5033302;28;20197;-76
2023/03/20 00:44:53;;;;;;;1.80;1.20;;;14.30;38.10;;;;;;5032246;28;20226;-76
2023/03/20 00:47:22;;;;;;;1.80;1.10;;;14.40;37.10;;;;;;5031662;28;20435;-76
2023/03/20 00:49:49;;;;;;;1.80;1.20;;;14.50;36.60;;;;;;5030678;28;20480;-75
2023/03/20 00:52:17;;;;;;;1.90;1.20;;;14.40;36.40;;;;;;5031735;28;20478;-75
2023/03/20 00:54:42;;;;;;;1.80;1.10;;;14.20;36.30;;;;;;5012843;28;20536;-76
2023/03/20 00:57:16;;;;;;;1.87;1.20;;;13.50;38.70;;;;;;5013261;28;20421;-75
2023/03/20 00:59:55;;;;;;;1.90;1.20;;;13.10;40.60;;;;;;5029891;28;20208;-75
2023/03/20 01:02:25;;;;;;;1.80;1.20;;;13.50;39.30;;;;;;5028975;28;20450;-76
2023/03/20 01:04:51;;;;;;;1.90;1.20;;;13.70;39.10;;;;;;5032457;28;20894;-76
2023/03/20 01:07:17;;;;;;;1.80;1.10;;;13.70;38.90;;;;;;5032593;28;20404;-76
2023/03/20 01:09:42;;;;;;;1.70;1.07;;;14.00;39.10;;;;;;5027512;28;20965;-76
2023/03/20 01:12:11;;;;;;;1.80;1.10;;;14.10;38.00;;;;;;5031802;28;20557;-75
2023/03/20 01:14:37;;;;;;;1.90;1.20;;;14.30;36.30;;;;;;5032128;28;20598;-75
2023/03/20 01:17:03;;;;;;;1.90;1.20;;;14.50;35.80;;;;;;5032294;28;20415;-76
2023/03/20 01:19:28;;;;;;;1.80;1.10;;;14.60;34.90;;;;;;5029903;28;20237;-75
2023/03/20 01:21:54;;;;;;;1.80;1.10;;;14.60;35.40;;;;;;5031164;28;20205;-76
2023/03/20 01:24:20;;;;;;;1.90;1.20;;;14.40;36.50;;;;;;5032093;28;20231;-76
2023/03/20 01:26:45;;;;;;;1.80;1.10;;;14.30;36.00;;;;;;5032324;28;20174;-76
2023/03/20 01:29:21;;;;;;;2.00;1.33;;;14.20;36.30;;;;;;5029801;28;20208;-76
2023/03/20 01:31:48;;;;;;;2.67;1.30;;;14.10;38.10;;;;;;5030375;28;20196;-75
2023/03/20 01:34:15;;;;;;;2.00;1.20;;;14.20;36.30;;;;;;5031882;28;20976;-77
2023/03/20 01:36:45;;;;;;;1.87;1.10;;;14.10;36.20;;;;;;5031461;28;20442;-75
2023/03/20 01:39:10;;;;;;;1.90;1.10;;;14.00;37.80;;;;;;5028944;28;20524;-76
2023/03/20 01:41:36;;;;;;;2.20;1.30;;;13.70;38.80;;;;;;5029911;28;20467;-75
2023/03/20 01:44:21;;;;;;;2.00;1.30;;;13.60;39.00;;;;;;5031719;28;20234;-76
2023/03/20 01:46:47;;;;;;;1.90;1.20;;;13.70;38.90;;;;;;5014131;28;20166;-77
2023/03/20 01:49:19;;;;;;;2.00;1.23;;;13.70;39.00;;;;;;5026640;28;20439;-75
2023/03/20 01:51:46;;;;;;;1.90;1.30;;;14.10;38.40;;;;;;5028952;28;20483;-76
2023/03/20 01:54:25;;;;;;;2.73;1.30;;;14.00;38.90;;;;;;5031215;28;20419;-76
2023/03/20 01:57:05;;;;;;;1.90;1.10;;;13.60;40.10;;;;;;5032215;28;20818;-76
2023/03/20 01:59:46;;;;;;;1.90;1.20;;;13.70;39.10;;;;;;5030341;28;20521;-75
2023/03/20 02:02:18;;;;;;;1.90;1.10;;;14.00;38.20;;;;;;5030241;28;20877;-76
2023/03/20 02:04:47;;;;;;;1.90;1.20;;;14.00;38.50;;;;;;5023759;28;20510;-75
2023/03/20 02:07:15;;;;;;;1.80;1.10;;;14.00;38.00;;;;;;5032182;28;20930;-76
2023/03/20 02:09:41;;;;;;;1.90;1.20;;;14.20;39.00;;;;;;5031540;28;20911;-76
2023/03/20 02:12:07;;;;;;;1.90;1.20;;;13.90;38.50;;;;;;5027270;28;20456;-74
2023/03/20 02:14:34;;;;;;;1.97;1.20;;;14.00;38.90;;;;;;5030767;28;20200;-76
2023/03/20 02:17:03;;;;;;;1.90;1.10;;;13.90;38.90;;;;;;5031493;28;20451;-75
2023/03/20 02:19:35;;;;;;;1.90;1.10;;;13.80;38.70;;;;;;5031453;28;20553;-76
2023/03/20 02:22:24;;;;;;;2.10;1.40;;;14.00;37.10;;;;;;5035361;28;20608;-76
2023/03/20 02:25:02;;;;;;;1.80;1.10;;;14.20;36.30;;;;;;4998360;28;20434;-76
2023/03/20 02:28:03;;;;;;;2.00;1.30;;;14.30;36.40;;;;;;5037896;28;20438;-76
2023/03/20 02:30:35;;;;;;;2.00;1.30;;;14.00;37.30;;;;;;4990180;28;20457;-75
2023/03/20 02:33:13;;;;;;;2.00;1.30;;;14.00;36.80;;;;;;5034494;28;20436;-76
2023/03/20 02:35:47;;;;;;;2.00;1.30;;;13.90;37.40;;;;;;5036500;28;20500;-75
2023/03/20 02:38:33;;;;;;;1.90;1.20;;;13.90;38.70;;;;;;5037952;28;20435;-76
2023/03/20 02:41:04;;;;;;;1.90;1.30;;;14.00;38.90;;;;;;5037882;28;20431;-75
2023/03/20 02:43:58;;;;;;;1.90;1.20;;;13.90;39.30;;;;;;5035136;28;20509;-74
2023/03/20 02:46:45;;;;;;;2.00;1.20;;;14.00;37.50;;;;;;5037115;28;20930;-75
2023/03/20 02:49:41;;;;;;;1.80;1.03;;;14.00;38.60;;;;;;5037187;28;20431;-75
2023/03/20 02:52:28;;;;;;;2.43;1.40;;;14.00;38.60;;;;;;5017548;28;20513;-75
2023/03/20 02:55:10;;;;;;;1.90;1.10;;;14.00;37.10;;;;;;5032366;28;20453;-76
2023/03/20 02:57:57;;;;;;;1.97;1.23;;;14.20;37.90;;;;;;5036888;28;20438;-76
2023/03/20 03:00:54;;;;;;;1.80;1.10;;;13.90;38.40;;;;;;5037643;28;20453;-75
2023/03/20 03:03:26;;;;;;;1.90;1.13;;;13.80;38.60;;;;;;5007096;28;20504;-75
2023/03/20 03:06:13;;;;;;;2.20;1.40;;;13.90;39.80;;;;;;5035381;28;20435;-75
2023/03/20 03:08:43;;;;;;;1.80;1.10;;;13.90;38.90;;;;;;5036138;28;20414;-75
2023/03/20 03:11:09;;;;;;;1.87;1.17;;;13.90;39.50;;;;;;5036938;28;20555;-75
2023/03/20 03:13:43;;;;;;;1.80;1.10;;;13.80;39.80;;;;;;5037454;28;20419;-75
2023/03/20 03:16:14;;;;;;;2.10;1.50;;;13.80;40.10;;;;;;5038604;28;20934;-75
2023/03/20 03:18:42;;;;;;;1.80;1.10;;;13.40;40.00;;;;;;5037322;28;20498;-75
2023/03/20 03:21:10;;;;;;;1.90;1.20;;;13.50;40.50;;;;;;5037255;28;20435;-76
2023/03/20 03:23:46;;;;;;;1.90;1.20;;;13.60;40.70;;;;;;5037356;28;20419;-76
2023/03/20 03:26:20;;;;;;;1.80;1.13;;;13.90;39.00;;;;;;5035077;28;20442;-75
2023/03/20 03:28:49;;;;;;;1.90;1.30;;;14.00;38.20;;;;;;5033692;28;20439;-75
2023/03/20 03:31:17;;;;;;;1.90;1.17;;;14.10;38.80;;;;;;5035558;28;20487;-76
2023/03/20 03:33:49;;;;;;;1.90;1.20;;;14.00;39.80;;;;;;5025716;28;20423;-75
2023/03/20 03:36:20;;;;;;;1.87;1.20;;;13.80;39.80;;;;;;5032537;28;20471;-76
2023/03/20 03:38:59;;;;;;;1.90;1.17;;;13.90;39.20;;;;;;5033249;28;20493;-75
2023/03/20 03:41:51;;;;;;;1.87;1.20;;;13.80;39.10;;;;;;5034275;28;20504;-76
2023/03/20 03:44:36;;;;;;;1.90;1.20;;;13.70;39.70;;;;;;5033991;28;20477;-75
2023/03/20 03:47:05;;;;;;;1.90;1.30;;;13.90;39.20;;;;;;5032379;28;20511;-76
2023/03/20 03:49:38;;;;;;;1.80;1.10;;;13.80;39.70;;;;;;5031559;28;20447;-75
2023/03/20 03:52:15;;;;;;;1.80;1.20;;;13.40;41.40;;;;;;5033441;28;20996;-76
2023/03/20 03:54:54;;;;;;;1.80;1.10;;;13.10;41.80;;;;;;5034034;28;20445;-75
2023/03/20 03:57:26;;;;;;;2.00;1.30;;;13.30;40.70;;;;;;5032050;28;20448;-75
2023/03/20 03:59:55;;;;;;;1.80;1.10;;;13.70;41.20;;;;;;5032898;28;20540;-75
2023/03/20 04:02:22;;;;;;;1.80;1.10;;;14.00;40.10;;;;;;5033963;28;20431;-76
2023/03/20 04:04:51;;;;;;;1.90;1.20;;;13.80;40.80;;;;;;5031646;28;20443;-76
2023/03/20 04:07:17;;;;;;;1.80;1.10;;;13.60;39.60;;;;;;5033858;28;20419;-75
2023/03/20 04:09:43;;;;;;;1.80;1.10;;;13.60;39.30;;;;;;5033923;28;20417;-75
2023/03/20 04:12:36;;;;;;;1.80;1.20;;;13.70;39.50;;;;;;5032433;28;20275;-74
2023/03/20 04:15:03;;;;;;;3.90;1.73;;;13.20;41.70;;;;;;5026708;28;20438;-75
2023/03/20 04:17:28;;;;;;;1.80;1.10;;;13.50;39.60;;;;;;5032251;28;21008;-76
2023/03/20 04:19:54;;;;;;;2.47;1.53;;;13.20;40.70;;;;;;5033637;28;20455;-76
2023/03/20 04:22:20;;;;;;;1.90;1.20;;;13.20;40.60;;;;;;5031124;28;20204;-76
2023/03/20 04:24:46;;;;;;;1.87;1.20;;;13.60;39.90;;;;;;5032892;28;20200;-76
2023/03/20 04:27:11;;;;;;;1.90;1.23;;;13.60;38.60;;;;;;5030405;28;20191;-76
2023/03/20 04:29:37;;;;;;;1.90;1.20;;;13.40;38.90;;;;;;5031898;28;20535;-74
2023/03/20 04:32:02;;;;;;;1.80;1.20;;;13.60;39.10;;;;;;5032501;28;20208;-75
2023/03/20 04:34:28;;;;;;;2.20;1.50;;;13.10;39.60;;;;;;5033130;28;20210;-76
2023/03/20 04:36:54;;;;;;;2.10;1.20;;;13.90;38.80;;;;;;5031385;28;20323;-75
2023/03/20 04:39:20;;;;;;;1.90;1.20;;;13.80;38.30;;;;;;5032413;28;20548;-75
2023/03/20 04:41:46;;;;;;;1.90;1.20;;;13.70;37.80;;;;;;5032074;28;20246;-75
2023/03/20 04:44:11;;;;;;;1.80;1.10;;;13.50;38.80;;;;;;5031800;28;20412;-75
2023/03/20 04:46:37;;;;;;;1.90;1.20;;;13.60;37.30;;;;;;5032193;28;20922;-77
2023/03/20 04:49:02;;;;;;;2.00;1.33;;;13.70;37.50;;;;;;5035405;28;20184;-74
2023/03/20 04:51:28;;;;;;;1.83;1.17;;;14.00;37.90;;;;;;5033286;28;20224;-74
2023/03/20 04:53:54;;;;;;;1.90;1.20;;;13.80;38.00;;;;;;5031697;28;20276;-75
2023/03/20 04:56:19;;;;;;;1.80;1.10;;;13.60;37.60;;;;;;5033000;28;20181;-73
2023/03/20 04:58:45;;;;;;;2.10;1.43;;;13.70;36.80;;;;;;5029999;28;21004;-73
2023/03/20 05:01:11;;;;;;;1.90;1.10;;;13.80;37.30;;;;;;5032832;28;20543;-73
2023/03/20 05:03:36;;;;;;;2.00;1.30;;;13.70;37.70;;;;;;5029768;28;20188;-73
2023/03/20 05:06:02;;;;;;;1.80;1.10;;;13.50;38.20;;;;;;5032074;28;20260;-75
2023/03/20 05:08:28;;;;;;;1.90;1.20;;;13.50;35.80;;;;;;5030247;28;20236;-76
2023/03/20 05:10:53;;;;;;;1.90;1.10;;;13.70;35.80;;;;;;5031932;28;20466;-73
2023/03/20 05:13:19;;;;;;;2.00;1.30;;;13.70;35.80;;;;;;5030948;28;20181;-74
2023/03/20 05:15:45;;;;;;;1.97;1.20;;;14.00;36.00;;;;;;5031625;28;20644;-73
2023/03/20 05:18:11;;;;;;;1.90;1.20;;;13.90;35.40;;;;;;5031314;28;20540;-73
2023/03/20 05:20:36;;;;;;;1.90;1.20;;;13.80;35.50;;;;;;5029043;28;20457;-73
2023/03/20 05:23:02;;;;;;;1.80;1.10;;;13.90;36.00;;;;;;5032013;28;20310;-73
2023/03/20 05:25:28;;;;;;;1.80;1.10;;;13.70;35.80;;;;;;5031135;28;20556;-73
2023/03/20 05:27:53;;;;;;;1.80;1.10;;;13.90;34.70;;;;;;5032074;28;20419;-73
2023/03/20 05:30:19;;;;;;;1.80;1.13;;;13.90;35.80;;;;;;5029837;28;20539;-76
2023/03/20 05:32:45;;;;;;;1.90;1.20;;;14.00;35.70;;;;;;5031786;28;20182;-73
2023/03/20 05:35:11;;;;;;;1.80;1.10;;;13.80;35.00;;;;;;5028110;28;20258;-75
2023/03/20 05:37:37;;;;;;;1.90;1.13;;;13.80;35.90;;;;;;5031230;28;20176;-75
2023/03/20 05:40:04;;;;;;;1.80;1.20;;;13.80;35.00;;;;;;5029991;28;20486;-73
2023/03/20 05:42:30;;;;;;;1.80;1.10;;;13.90;35.10;;;;;;5030470;28;20463;-78
2023/03/20 05:44:55;;;;;;;1.73;1.10;;;13.70;35.80;;;;;;5031839;28;20502;-73
2023/03/20 05:47:21;;;;;;;1.80;1.10;;;13.80;35.20;;;;;;5030736;28;20188;-73
2023/03/20 05:49:47;;;;;;;1.90;1.20;;;13.60;36.90;;;;;;5031688;28;20187;-75
2023/03/20 05:52:12;;;;;;;1.70;1.10;;;13.70;35.60;;;;;;5029620;28;20270;-73
2023/03/20 05:54:38;;;;;;;1.80;1.10;;;13.60;36.40;;;;;;5030116;28;20172;-73
2023/03/20 05:57:03;;;;;;;1.70;1.00;;;13.80;35.90;;;;;;5029965;28;20643;-73
2023/03/20 05:59:29;;;;;;;1.90;1.20;;;13.40;36.30;;;;;;5030837;28;20212;-75
2023/03/20 06:01:54;;;;;;;1.90;1.23;;;13.50;36.40;;;;;;5028560;28;20212;-73
2023/03/20 06:04:20;;;;;;;1.80;1.17;;;13.80;37.10;;;;;;5030839;28;20177;-73
2023/03/20 06:06:46;;;;;;;1.80;1.20;;;13.80;35.90;;;;;;5030520;28;20263;-73
2023/03/20 06:09:11;;;;;;;2.00;1.30;;;14.20;36.00;;;;;;5031132;28;20187;-76
2023/03/20 06:11:37;;;;;;;1.70;1.10;;;14.50;34.60;;;;;;5031465;28;20567;-73
2023/03/20 06:14:02;;;;;;;1.80;1.20;;;14.40;36.40;;;;;;5029800;28;20189;-73
2023/03/20 06:16:28;;;;;;;1.77;1.10;;;14.60;34.30;;;;;;5029765;28;20197;-73
2023/03/20 06:18:54;;;;;;;2.00;1.20;;;15.00;33.50;;;;;;5031359;28;20197;-74
2023/03/20 06:21:19;;;;;;;1.80;1.10;;;14.90;32.70;;;;;;5031087;28;20188;-76
2023/03/20 06:23:45;;;;;;;1.70;1.10;;;14.70;33.10;;;;;;5031063;28;20211;-74
2023/03/20 06:26:11;;;;;;;1.80;1.20;;;14.50;34.00;;;;;;5029067;28;20184;-75
2023/03/20 06:28:36;;;;;;;1.80;1.10;;;14.50;35.30;;;;;;5026357;28;20266;-73
2023/03/20 06:31:02;;;;;;;1.80;1.10;;;14.40;34.00;;;;;;5031412;28;20199;-75
2023/03/20 06:33:27;;;;;;;1.80;1.10;;;14.10;34.50;;;;;;5031127;28;20252;-73
2023/03/20 06:35:53;;;;;;;1.70;1.10;;;13.90;36.00;;;;;;5031212;28;20640;-73
2023/03/20 06:38:19;;;;;;;1.80;1.10;;;13.50;36.40;;;;;;5027473;28;20528;-73
2023/03/20 06:40:44;;;;;;;1.77;1.10;;;13.60;37.80;;;;;;5030303;28;20196;-73
2023/03/20 06:43:11;;;;;;;1.70;1.10;;;13.60;38.40;;;;;;5029811;28;20521;-76
2023/03/20 06:45:37;;;;;;;1.90;1.30;;;12.90;38.90;;;;;;5031276;28;20581;-73
2023/03/20 06:48:06;;;;;;;2.07;1.30;;;13.40;38.30;;;;;;5029957;28;20444;-74
2023/03/20 06:50:32;;;;;;;1.90;1.23;;;13.60;37.70;;;;;;5029880;28;20566;-73
2023/03/20 06:52:57;;;;;;;1.90;1.30;;;13.60;36.50;;;;;;5029906;28;20532;-72
2023/03/20 06:55:23;;;;;;;1.80;1.20;;;13.50;37.80;;;;;;5031230;28;20181;-73
2023/03/20 06:57:48;;;;;;;1.90;1.23;;;14.00;36.10;;;;;;5030388;28;20186;-76
2023/03/20 07:00:14;;;;;;;1.70;1.10;;;14.10;36.10;;;;;;5022074;28;20209;-73
2023/03/20 07:02:40;;;;;;;1.83;1.20;;;14.20;36.30;;;;;;5028666;28;20224;-73
2023/03/20 07:05:06;;;;;;;1.70;1.10;;;14.90;35.60;;;;;;5030229;28;20461;-73
2023/03/20 07:07:33;;;;;;;1.80;1.10;;;14.60;34.50;;;;;;5031810;28;20182;-72
2023/03/20 07:09:58;;;;;;;1.90;1.20;;;14.70;36.50;;;;;;5032363;28;20452;-73
2023/03/20 07:12:27;;;;;;;1.80;1.10;;;13.90;36.00;;;;;;5034486;28;20952;-73
2023/03/20 07:14:53;;;;;;;1.90;1.20;;;14.20;36.30;;;;;;5033379;28;20185;-73
2023/03/20 07:17:19;;;;;;;1.77;1.10;;;14.10;35.40;;;;;;5034538;28;20422;-73
2023/03/20 07:19:44;;;;;;;1.80;1.10;;;14.00;36.10;;;;;;5032880;28;20212;-72
2023/03/20 07:22:21;;;;;;;1.80;1.10;;;14.00;36.10;;;;;;5033187;28;20201;-72
2023/03/20 07:24:47;;;;;;;1.80;1.17;;;14.50;34.70;;;;;;5031706;28;20648;-75
2023/03/20 07:27:13;;;;;;;1.80;1.20;;;14.80;33.70;;;;;;5034558;28;20421;-72
2023/03/20 07:29:38;;;;;;;1.70;1.20;;;15.20;33.70;;;;;;5033724;28;20269;-72
2023/03/20 07:32:04;;;;;;;1.80;1.20;;;14.20;34.90;;;;;;5024325;28;20202;-72
2023/03/20 07:34:30;;;;;;;1.70;1.20;;;13.80;35.40;;;;;;5034131;28;20183;-73
2023/03/20 07:36:55;;;;;;;1.70;1.10;;;13.80;35.60;;;;;;5033430;28;20195;-72
2023/03/20 07:39:21;;;;;;;1.70;1.10;;;14.20;34.60;;;;;;5034048;28;20249;-72
2023/03/20 07:41:47;;;;;;;1.80;1.20;;;14.60;32.90;;;;;;5032498;28;20249;-72
2023/03/20 07:44:13;;;;;;;2.20;1.50;;;14.00;34.60;;;;;;5033116;28;20442;-72
2023/03/20 07:46:40;;;;;;;1.83;1.20;;;14.00;34.30;;;;;;5033049;28;20178;-74
2023/03/20 07:49:06;;;;;;;1.77;1.13;;;14.00;34.10;;;;;;5034114;28;20414;-72
2023/03/20 07:51:32;;;;;;;1.80;1.20;;;13.80;35.00;;;;;;5032666;28;20463;-72
2023/03/20 07:53:58;;;;;;;1.70;1.10;;;13.70;35.80;;;;;;5032076;28;20457;-75
2023/03/20 07:56:24;;;;;;;1.80;1.20;;;13.80;37.20;;;;;;5032385;28;20457;-77
2023/03/20 07:58:49;;;;;;;1.70;1.13;;;14.50;34.40;;;;;;5034165;28;20459;-77
2023/03/20 08:01:15;;;;;;;1.87;1.20;;;14.10;34.70;;;;;;5034047;28;20561;-77
2023/03/20 08:03:41;;;;;;;1.70;1.10;;;14.30;33.70;;;;;;5031956;28;20263;-79
2023/03/20 08:06:08;;;;;;;1.80;1.20;;;14.40;33.40;;;;;;5045662;28;20170;-79
2023/03/20 08:08:34;;;;;;;1.80;1.20;;;14.90;32.60;;;;;;5030832;28;20184;-78
2023/03/20 08:11:00;;;;;;;1.90;1.23;;;14.90;32.60;;;;;;5033795;28;20937;-77
2023/03/20 08:13:26;;;;;;;1.70;1.10;;;15.30;32.10;;;;;;5033791;28;20483;-79
2023/03/20 08:15:52;;;;;;;1.90;1.30;;;15.10;32.40;;;;;;5034399;28;20897;-72
2023/03/20 08:18:19;;;;;;;1.90;1.20;;;14.60;33.20;;;;;;5030436;28;20493;-75
2023/03/20 08:20:45;;;;;;;1.80;1.30;;;13.90;34.80;;;;;;5031424;28;20207;-72
2023/03/20 08:23:11;;;;;;;1.77;1.20;;;14.00;35.30;;;;;;5029247;28;20435;-75
2023/03/20 08:25:37;;;;;;;1.80;1.17;;;14.40;34.40;;;;;;5033112;28;20533;-72
2023/03/20 08:28:03;;;;;;;1.90;1.30;;;14.40;34.60;;;;;;5032623;28;20173;-72
2023/03/20 08:30:29;;;;;;;2.07;1.53;;;14.60;33.30;;;;;;5027721;28;20937;-72
2023/03/20 08:32:57;;;;;;;1.87;1.30;;;14.90;32.60;;;;;;5032104;28;20786;-75
2023/03/20 08:35:22;;;;;;;1.87;1.23;;;14.80;33.20;;;;;;5032448;28;20783;-72
2023/03/20 08:37:48;;;;;;;1.80;1.20;;;14.60;32.80;;;;;;5030783;28;20430;-71
2023/03/20 08:40:14;;;;;;;1.80;1.10;;;14.70;32.70;;;;;;5031931;28;20208;-71
2023/03/20 08:42:39;;;;;;;1.90;1.30;;;14.60;31.70;;;;;;5032785;28;20189;-74
2023/03/20 08:45:06;;;;;;;1.80;1.20;;;14.40;32.10;;;;;;5032372;28;20181;-71
2023/03/20 08:47:32;;;;;;;1.70;1.17;;;14.20;33.00;;;;;;5031023;28;20191;-71
2023/03/20 08:49:57;;;;;;;1.93;1.37;;;14.30;32.70;;;;;;5029325;28;20824;-73
2023/03/20 08:52:23;;;;;;;1.80;1.20;;;14.30;33.50;;;;;;5032350;28;20696;-69
2023/03/20 08:54:49;;;;;;;1.80;1.20;;;14.60;32.10;;;;;;5032438;28;20183;-69
2023/03/20 08:57:14;;;;;;;1.83;1.20;;;14.50;33.00;;;;;;5031737;28;20190;-69
2023/03/20 08:59:40;;;;;;;1.90;1.30;;;14.60;32.30;;;;;;5028327;28;20552;-70
2023/03/20 09:02:06;;;;;;;1.70;1.10;;;14.80;31.90;;;;;;5027819;28;20273;-71
2023/03/20 09:04:32;;;;;;;1.83;1.27;;;14.80;31.60;;;;;;5032355;28;20176;-73
2023/03/20 09:07:00;;;;;;;1.90;1.30;;;14.40;32.40;;;;;;5032640;28;20176;-71
2023/03/20 09:09:28;;;;;;;1.80;1.20;;;14.80;31.50;;;;;;5028730;28;20188;-71
2023/03/20 09:11:55;;;;;;;1.90;1.30;;;15.50;31.20;;;;;;5031129;28;20466;-70
2023/03/20 09:14:22;;;;;;;1.80;1.17;;;15.10;29.90;;;;;;5032221;28;20412;-70
2023/03/20 09:16:47;;;;;;;1.83;1.20;;;14.70;32.20;;;;;;5024967;28;20454;-71
2023/03/20 09:19:13;;;;;;;1.80;1.17;;;15.10;30.60;;;;;;5032431;28;20455;-70
2023/03/20 09:21:39;;;;;;;1.90;1.30;;;15.40;29.60;;;;;;5030076;28;20896;-71
2023/03/20 09:24:05;;;;;;;1.90;1.20;;;15.60;29.10;;;;;;5030989;28;20183;-71
2023/03/20 09:26:31;;;;;;;1.80;1.20;;;15.40;29.30;;;;;;5029454;28;20553;-70
2023/03/20 09:28:56;;;;;;;1.83;1.20;;;15.50;28.90;;;;;;5032036;28;20435;-73
2023/03/20 09:31:22;;;;;;;1.80;1.20;;;15.50;29.40;;;;;;5030956;28;20313;-70
2023/03/20 09:33:48;;;;;;;1.90;1.40;;;15.80;29.10;;;;;;5030398;28;20180;-70
2023/03/20 09:36:14;;;;;;;1.90;1.30;;;15.70;28.90;;;;;;5031174;28;20439;-71
2023/03/20 09:38:41;;;;;;;1.90;1.30;;;15.60;28.90;;;;;;5031801;28;20259;-71
2023/03/20 09:41:18;;;;;;;1.80;1.17;;;15.30;28.00;;;;;;5030762;28;20968;-75
2023/03/20 09:44:02;;;;;;;1.80;1.20;;;16.50;28.20;;;;;;5028467;28;20491;-70
2023/03/20 09:46:55;;;;;;;2.00;1.40;;;16.60;26.90;;;;;;5030597;28;20473;-75
2023/03/20 09:49:42;;;;;;;1.87;1.27;;;17.10;26.40;;;;;;5021888;28;20435;-71
2023/03/20 09:52:29;;;;;;;1.83;1.23;;;15.70;28.00;;;;;;5023614;28;20959;-71
2023/03/20 09:54:59;;;;;;;1.80;1.27;;;15.90;26.90;;;;;;5011988;28;20451;-71
2023/03/20 09:57:38;;;;;;;1.80;1.20;;;16.20;26.60;;;;;;5019837;28;20450;-75
2023/03/20 10:00:26;;;;;;;1.73;1.10;;;15.90;26.30;;;;;;5011734;28;20963;-72
2023/03/20 10:03:01;;;;;;;1.93;1.37;;;16.30;26.90;;;;;;5016734;28;20761;-72
2023/03/20 10:05:33;;;;;;;1.90;1.27;;;16.30;26.40;;;;;;5027274;28;20464;-73
2023/03/20 10:08:02;;;;;;;1.80;1.23;;;16.60;25.30;;;;;;5026113;28;21009;-72
2023/03/20 10:10:54;;;;;;;1.80;1.20;;;16.60;26.20;;;;;;5031094;28;20447;-74
2023/03/20 10:13:51;;;;;;;1.80;1.20;;;16.80;26.20;;;;;;5031457;28;20454;-71
2023/03/20 10:16:42;;;;;;;1.80;1.20;;;16.60;25.90;;;;;;5027609;28;20799;-72
2023/03/20 10:19:17;;;;;;;1.80;1.20;;;15.80;26.80;;;;;;5027655;28;20462;-71
2023/03/20 10:21:44;;;;;;;1.80;1.10;;;15.50;27.50;;;;;;5021374;28;20455;-73
2023/03/20 10:24:27;;;;;;;1.80;1.20;;;15.20;28.00;;;;;;5030524;28;20470;-73
2023/03/20 10:26:57;;;;;;;1.80;1.20;;;15.60;27.20;;;;;;5024776;28;20412;-72
2023/03/20 10:29:41;;;;;;;1.80;1.20;;;15.60;27.20;;;;;;5028935;28;20979;-72
2023/03/20 10:32:21;;;;;;;1.90;1.23;;;15.10;28.40;;;;;;5031147;28;20433;-72
2023/03/20 10:35:16;;;;;;;2.03;1.40;;;14.10;30.00;;;;;;5011151;28;20907;-71
2023/03/20 10:38:06;;;;;;;1.80;1.20;;;14.40;29.60;;;;;;4989294;28;20427;-74
2023/03/20 10:40:36;;;;;;;1.90;1.27;;;15.20;28.00;;;;;;5029584;28;20480;-71
2023/03/20 10:43:08;;;;;;;1.90;1.30;;;15.50;27.70;;;;;;5033462;28;20410;-72
2023/03/20 10:45:56;;;;;;;1.90;1.27;;;15.40;27.20;;;;;;5026313;28;20528;-72
2023/03/20 10:48:32;;;;;;;1.90;1.20;;;15.20;27.30;;;;;;5033438;28;20805;-72
2023/03/20 10:51:01;;;;;;;1.90;1.30;;;15.50;27.00;;;;;;5028657;28;20447;-72
2023/03/20 10:53:45;;;;;;;2.00;1.33;;;15.30;27.70;;;;;;5034819;28;20463;-72
2023/03/20 10:56:19;;;;;;;1.80;1.20;;;14.80;28.10;;;;;;5034907;28;20433;-74
2023/03/20 10:58:49;;;;;;;1.90;1.20;;;15.10;27.90;;;;;;5031970;28;20474;-75
2023/03/20 11:01:15;;;;;;;1.90;1.20;;;15.20;28.10;;;;;;5034242;28;20447;-71
2023/03/20 11:03:41;;;;;;;1.90;1.20;;;15.20;27.60;;;;;;5033499;28;20483;-72
2023/03/20 11:06:16;;;;;;;1.83;1.23;;;14.80;28.20;;;;;;5033109;28;20435;-72
2023/03/20 11:08:46;;;;;;;1.83;1.20;;;14.30;25.50;;;;;;5025941;28;20434;-72
2023/03/20 11:11:11;;;;;;;1.80;1.20;;;16.40;24.80;;;;;;5034434;28;20488;-74
2023/03/20 11:13:43;;;;;;;1.77;1.17;;;15.70;25.30;;;;;;5033371;28;20432;-71
2023/03/20 11:16:35;;;;;;;1.77;1.10;;;15.70;25.80;;;;;;5033837;28;20188;-71
2023/03/20 11:19:10;;;;;;;1.90;1.20;;;15.40;24.90;;;;;;5028967;28;20553;-71
2023/03/20 11:21:46;;;;;;;1.80;1.23;;;15.50;25.80;;;;;;5032619;28;20992;-72
2023/03/20 11:24:40;;;;;;;1.90;1.40;;;16.20;24.60;;;;;;5033144;28;20437;-72
2023/03/20 11:27:10;;;;;;;1.90;1.27;;;16.00;26.50;;;;;;5029733;28;20565;-71
2023/03/20 11:29:37;;;;;;;1.90;1.20;;;17.20;24.70;;;;;;5034305;28;20412;-73
2023/03/20 11:32:26;;;;;;;2.10;1.20;;;18.30;23.10;;;;;;5032898;28;20463;-72
2023/03/20 11:34:56;;;;;;;2.43;1.20;;;19.20;21.10;;;;;;5024631;28;20469;-74
2023/03/20 11:37:32;;;;;;;3.40;1.53;;;20.30;20.00;;;;;;5029364;28;20902;-73
2023/03/20 11:40:11;;;;;;;2.83;1.20;;;21.70;19.20;;;;;;5033357;28;20558;-76
2023/03/20 11:42:37;;;;;;;2.90;1.20;;;22.20;18.60;;;;;;5032504;28;20436;-73
2023/03/20 11:45:15;;;;;;;3.07;1.20;;;21.20;18.70;;;;;;5032173;28;20859;-72
2023/03/20 11:47:44;;;;;;;3.10;1.23;;;20.70;18.80;;;;;;5026264;28;20170;-73
2023/03/20 11:50:35;;;;;;;3.20;1.23;;;19.50;19.90;;;;;;5033946;28;20900;-73
2023/03/20 11:53:19;;;;;;;3.50;1.60;;;18.90;20.90;;;;;;5031248;28;20444;-71
2023/03/20 11:56:03;;;;;;;3.00;1.20;;;16.10;24.60;;;;;;5021276;28;20508;-72
2023/03/20 11:58:29;;;;;;;2.90;1.30;;;16.60;24.60;;;;;;5031852;28;20497;-73
2023/03/20 12:00:55;;;;;;;2.80;1.20;;;17.30;23.40;;;;;;5033759;28;20431;-71
2023/03/20 12:03:56;;;;;;;2.80;1.30;;;17.50;23.20;;;;;;5033558;28;20188;-72
2023/03/20 12:06:26;;;;;;;2.50;1.20;;;18.20;22.80;;;;;;5029577;28;20439;-72
2023/03/20 12:09:00;;;;;;;2.50;1.23;;;17.80;22.70;;;;;;5033531;28;20463;-72
2023/03/20 12:11:45;;;;;;;2.40;1.20;;;16.90;23.80;;;;;;5030848;28;20461;-72
2023/03/20 12:14:27;;;;;;;2.50;1.40;;;16.10;25.50;;;;;;5033197;28;20887;-75
2023/03/20 12:17:25;;;;;;;2.50;1.30;;;16.60;25.00;;;;;;5030780;28;20438;-72
2023/03/20 12:19:55;;;;;;;2.60;1.40;;;16.90;24.10;;;;;;4949779;28;20470;-71
2023/03/20 12:22:26;;;;;;;2.40;1.20;;;16.80;24.40;;;;;;5026352;28;20512;-71
2023/03/20 12:25:03;;;;;;;2.40;1.30;;;16.70;24.70;;;;;;5033090;28;20405;-72
2023/03/20 12:27:52;;;;;;;2.40;1.23;;;17.10;23.90;;;;;;5031435;28;20430;-71
2023/03/20 12:30:42;;;;;;;2.40;1.20;;;17.70;24.20;;;;;;5033067;28;20407;-73
2023/03/20 12:33:27;;;;;;;2.30;1.27;;;16.80;25.00;;;;;;5028191;28;20945;-70
2023/03/20 12:35:53;;;;;;;2.40;1.30;;;16.30;25.70;;;;;;5026986;28;20457;-70
2023/03/20 12:38:31;;;;;;;2.30;1.20;;;16.70;24.70;;;;;;5033038;28;20426;-71
2023/03/20 12:41:02;;;;;;;2.37;1.20;;;15.80;25.70;;;;;;5033492;28;20426;-70
2023/03/20 12:43:41;;;;;;;2.63;1.43;;;15.70;26.00;;;;;;5032842;28;20431;-71
2023/03/20 12:46:29;;;;;;;2.30;1.10;;;16.90;24.90;;;;;;5030194;28;21785;-71
2023/03/20 12:49:23;;;;;;;2.50;1.27;;;17.70;23.30;;;;;;5032398;28;20410;-72
2023/03/20 12:52:00;;;;;;;2.70;1.37;;;17.60;24.30;;;;;;5032497;28;20450;-71
2023/03/20 12:55:07;;;;;;;2.33;1.20;;;18.10;22.90;;;;;;5032557;28;20403;-72
2023/03/20 12:57:51;;;;;;;2.43;1.23;;;16.40;25.80;;;;;;5029865;28;20563;-70
2023/03/20 13:00:33;;;;;;;2.27;1.23;;;16.10;26.10;;;;;;5031684;28;20889;-71
2023/03/20 13:03:26;;;;;;;2.30;1.20;;;16.50;25.80;;;;;;5032726;28;20413;-71
2023/03/20 13:06:18;;;;;;;2.20;1.20;;;16.40;24.80;;;;;;5030933;28;20419;-71
2023/03/20 13:09:05;;;;;;;2.20;1.30;;;16.70;25.20;;;;;;5032535;28;20931;-70